sensor_id;sensor_type;location;lat;lon;timestamp;pressure;altitude;pressure_sealevel;temperature;humidity
61014;BME280;46899;47.542;19.082;2023-02-26T00:02:01;99285.25;;;3.33;92.70
61014;BME280;46899;47.542;19.082;2023-02-26T00:05:04;99302.50;;;3.28;92.76
61014;BME280;46899;47.542;19.082;2023-02-26T00:08:07;99290.66;;;3.22;92.32
61014;BME280;46899;47.542;19.082;2023-02-26T00:11:10;99270.19;;;3.18;92.85
61014;BME280;46899;47.542;19.082;2023-02-26T00:14:13;99284.72;;;3.19;92.58
61014;BME280;46899;47.542;19.082;2023-02-26T00:20:20;99288.09;;;3.22;91.14
61014;BME280;46899;47.542;19.082;2023-02-26T00:23:23;99277.81;;;3.21;91.33
61014;BME280;46899;47.542;19.082;2023-02-26T00:26:27;99300.09;;;3.20;90.99
61014;BME280;46899;47.542;19.082;2023-02-26T00:29:30;99307.03;;;3.17;91.02
61014;BME280;46899;47.542;19.082;2023-02-26T00:32:33;99287.38;;;3.14;91.32
61014;BME280;46899;47.542;19.082;2023-02-26T00:35:36;99267.75;;;3.12;91.54
61014;BME280;46899;47.542;19.082;2023-02-26T00:38:38;99239.47;;;3.12;91.59
61014;BME280;46899;47.542;19.082;2023-02-26T00:41:44;99240.44;;;3.08;91.71
61014;BME280;46899;47.542;19.082;2023-02-26T00:44:47;99269.81;;;2.96;92.49
61014;BME280;46899;47.542;19.082;2023-02-26T00:47:51;99271.47;;;2.99;92.60
61014;BME280;46899;47.542;19.082;2023-02-26T00:51:18;99269.81;;;2.96;92.66
61014;BME280;46899;47.542;19.082;2023-02-26T00:54:24;99276.63;;;2.97;92.98
61014;BME280;46899;47.542;19.082;2023-02-26T00:57:26;99261.22;;;2.99;92.89
61014;BME280;46899;47.542;19.082;2023-02-26T01:00:29;99260.47;;;2.92;93.40
61014;BME280;46899;47.542;19.082;2023-02-26T01:03:32;99274.97;;;2.95;93.53
61014;BME280;46899;47.542;19.082;2023-02-26T01:06:37;99287.81;;;2.95;93.55
61014;BME280;46899;47.542;19.082;2023-02-26T01:09:42;99281.06;;;2.91;93.45
61014;BME280;46899;47.542;19.082;2023-02-26T01:12:46;99274.16;;;2.94;93.57
61014;BME280;46899;47.542;19.082;2023-02-26T01:15:50;99290.38;;;2.96;93.09
61014;BME280;46899;47.542;19.082;2023-02-26T01:18:58;99276.78;;;2.91;92.68
61014;BME280;46899;47.542;19.082;2023-02-26T01:22:14;99299.16;;;2.86;93.17
61014;BME280;46899;47.542;19.082;2023-02-26T01:28:22;99319.72;;;2.85;92.86
61014;BME280;46899;47.542;19.082;2023-02-26T01:37:56;99289.84;;;2.81;93.28
61014;BME280;46899;47.542;19.082;2023-02-26T01:50:46;99274.53;;;2.76;92.59
61014;BME280;46899;47.542;19.082;2023-02-26T01:53:49;99267.78;;;2.72;92.91
61014;BME280;46899;47.542;19.082;2023-02-26T01:56:55;99260.94;;;2.71;92.58
61014;BME280;46899;47.542;19.082;2023-02-26T01:59:59;99272.94;;;2.70;92.96
61014;BME280;46899;47.542;19.082;2023-02-26T02:03:02;99285.09;;;2.62;92.83
61014;BME280;46899;47.542;19.082;2023-02-26T02:06:07;99310.94;;;2.53;93.67
61014;BME280;46899;47.542;19.082;2023-02-26T02:09:11;99312.63;;;2.54;93.87
61014;BME280;46899;47.542;19.082;2023-02-26T02:15:29;99314.50;;;2.46;94.18
61014;BME280;46899;47.542;19.082;2023-02-26T02:18:40;99291.34;;;2.49;94.36
61014;BME280;46899;47.542;19.082;2023-02-26T02:21:51;99287.84;;;2.53;93.70
61014;BME280;46899;47.542;19.082;2023-02-26T02:31:49;99295.62;;;2.47;93.98
61014;BME280;46899;47.542;19.082;2023-02-26T02:35:03;99305.28;;;2.36;94.86
61014;BME280;46899;47.542;19.082;2023-02-26T02:38:17;99306.13;;;2.37;94.97
61014;BME280;46899;47.542;19.082;2023-02-26T02:41:24;99313.09;;;2.30;95.21
61014;BME280;46899;47.542;19.082;2023-02-26T02:44:28;99319.09;;;2.29;95.56
61014;BME280;46899;47.542;19.082;2023-02-26T02:47:33;99323.31;;;2.32;95.50
61014;BME280;46899;47.542;19.082;2023-02-26T02:50:56;99317.44;;;2.27;95.78
61014;BME280;46899;47.542;19.082;2023-02-26T02:54:03;99313.16;;;2.27;96.23
61014;BME280;46899;47.542;19.082;2023-02-26T02:57:11;99316.66;;;2.22;96.33
61014;BME280;46899;47.542;19.082;2023-02-26T03:00:17;99327.81;;;2.19;96.55
61014;BME280;46899;47.542;19.082;2023-02-26T03:03:30;99331.28;;;2.18;96.85
61014;BME280;46899;47.542;19.082;2023-02-26T03:06:35;99331.28;;;2.18;97.26
61014;BME280;46899;47.542;19.082;2023-02-26T03:09:38;99343.97;;;2.26;97.01
61014;BME280;46899;47.542;19.082;2023-02-26T03:12:41;99362.72;;;2.29;96.65
61014;BME280;46899;47.542;19.082;2023-02-26T03:22:14;99339.66;;;2.26;96.52
61014;BME280;46899;47.542;19.082;2023-02-26T03:25:23;99337.16;;;2.25;96.58
61014;BME280;46899;47.542;19.082;2023-02-26T03:28:31;99354.25;;;2.24;96.70
61014;BME280;46899;47.542;19.082;2023-02-26T03:31:42;99355.16;;;2.23;96.79
61014;BME280;46899;47.542;19.082;2023-02-26T03:34:52;99358.69;;;2.16;97.08
61014;BME280;46899;47.542;19.082;2023-02-26T03:37:58;99368.94;;;2.16;97.52
61014;BME280;46899;47.542;19.082;2023-02-26T03:41:10;99372.34;;;2.18;97.63
61014;BME280;46899;47.542;19.082;2023-02-26T03:44:18;99373.28;;;2.14;97.96
61014;BME280;46899;47.542;19.082;2023-02-26T03:47:22;99362.25;;;2.07;98.67
61014;BME280;46899;47.542;19.082;2023-02-26T03:53:32;99372.53;;;2.06;99.41
61014;BME280;46899;47.542;19.082;2023-02-26T03:56:39;99381.94;;;2.07;99.64
61014;BME280;46899;47.542;19.082;2023-02-26T03:59:44;99391.31;;;2.10;99.34
61014;BME280;46899;47.542;19.082;2023-02-26T04:05:51;99387.94;;;2.06;99.52
61014;BME280;46899;47.542;19.082;2023-02-26T04:08:54;99371.69;;;2.07;99.30
61014;BME280;46899;47.542;19.082;2023-02-26T04:11:57;99360.53;;;2.08;99.16
61014;BME280;46899;47.542;19.082;2023-02-26T04:15:00;99358.00;;;2.06;99.46
61014;BME280;46899;47.542;19.082;2023-02-26T04:18:06;99361.50;;;2.01;99.99
61014;BME280;46899;47.542;19.082;2023-02-26T04:21:16;99357.31;;;1.97;100.00
61014;BME280;46899;47.542;19.082;2023-02-26T04:24:21;99356.41;;;1.99;99.71
61014;BME280;46899;47.542;19.082;2023-02-26T04:27:23;99373.59;;;1.94;100.00
61014;BME280;46899;47.542;19.082;2023-02-26T04:30:27;99389.91;;;1.89;100.00
61014;BME280;46899;47.542;19.082;2023-02-26T04:33:29;99399.34;;;1.87;100.00
61014;BME280;46899;47.542;19.082;2023-02-26T04:36:33;99431.00;;;1.86;100.00
61014;BME280;46899;47.542;19.082;2023-02-26T04:39:35;99429.31;;;1.85;100.00
61014;BME280;46899;47.542;19.082;2023-02-26T04:42:38;99419.00;;;1.88;100.00
61014;BME280;46899;47.542;19.082;2023-02-26T04:45:41;99436.06;;;1.89;99.91
61014;BME280;46899;47.542;19.082;2023-02-26T04:48:43;99442.94;;;1.87;100.00
61014;BME280;46899;47.542;19.082;2023-02-26T04:51:46;99453.16;;;1.90;100.00
61014;BME280;46899;47.542;19.082;2023-02-26T04:54:49;99459.16;;;1.89;100.00
61014;BME280;46899;47.542;19.082;2023-02-26T04:57:52;99451.41;;;1.92;99.84
61014;BME280;46899;47.542;19.082;2023-02-26T05:00:56;99447.19;;;1.89;99.31
61014;BME280;46899;47.542;19.082;2023-02-26T05:04:00;99440.34;;;1.90;99.58
61014;BME280;46899;47.542;19.082;2023-02-26T05:07:05;99448.09;;;1.85;99.97
61014;BME280;46899;47.542;19.082;2023-02-26T05:10:08;99442.19;;;1.80;100.00
61014;BME280;46899;47.542;19.082;2023-02-26T05:13:11;99431.91;;;1.83;100.00
61014;BME280;46899;47.542;19.082;2023-02-26T05:16:13;99434.50;;;1.80;100.00
61014;BME280;46899;47.542;19.082;2023-02-26T05:19:16;99450.78;;;1.78;100.00
61014;BME280;46899;47.542;19.082;2023-02-26T05:22:19;99451.69;;;1.74;100.00
61014;BME280;46899;47.542;19.082;2023-02-26T05:25:22;99447.41;;;1.74;100.00
61014;BME280;46899;47.542;19.082;2023-02-26T05:28:26;99437.13;;;1.76;100.00
61014;BME280;46899;47.542;19.082;2023-02-26T05:31:29;99448.19;;;1.79;100.00
61014;BME280;46899;47.542;19.082;2023-02-26T05:34:32;99467.94;;;1.74;100.00
61014;BME280;46899;47.542;19.082;2023-02-26T05:37:35;99478.22;;;1.71;100.00
61014;BME280;46899;47.542;19.082;2023-02-26T05:40:40;99489.38;;;1.69;100.00
61014;BME280;46899;47.542;19.082;2023-02-26T05:43:42;99487.66;;;1.68;100.00
61014;BME280;46899;47.542;19.082;2023-02-26T05:46:45;99473.97;;;1.69;100.00
61014;BME280;46899;47.542;19.082;2023-02-26T05:49:48;99478.22;;;1.71;100.00
61014;BME280;46899;47.542;19.082;2023-02-26T05:52:50;99492.63;;;1.80;100.00
61014;BME280;46899;47.542;19.082;2023-02-26T05:55:53;99516.50;;;1.85;100.00
61014;BME280;46899;47.542;19.082;2023-02-26T05:58:55;99521.59;;;1.88;100.00
61014;BME280;46899;47.542;19.082;2023-02-26T06:01:58;99518.97;;;1.91;100.00
61014;BME280;46899;47.542;19.082;2023-02-26T06:05:01;99512.19;;;1.87;99.88
61014;BME280;46899;47.542;19.082;2023-02-26T06:08:03;99513.97;;;1.83;100.00
61014;BME280;46899;47.542;19.082;2023-02-26T06:11:07;99522.53;;;1.81;100.00
61014;BME280;46899;47.542;19.082;2023-02-26T06:14:09;99521.59;;;1.88;100.00
61014;BME280;46899;47.542;19.082;2023-02-26T06:17:12;99520.66;;;1.92;100.00
61014;BME280;46899;47.542;19.082;2023-02-26T06:20:14;99527.44;;;1.96;100.00
61014;BME280;46899;47.542;19.082;2023-02-26T06:23:17;99531.72;;;1.97;100.00
61014;BME280;46899;47.542;19.082;2023-02-26T06:26:20;99541.81;;;2.07;99.90
61014;BME280;46899;47.542;19.082;2023-02-26T06:29:25;99548.56;;;2.16;99.36
61014;BME280;46899;47.542;19.082;2023-02-26T06:32:27;99561.31;;;2.19;98.86
61014;BME280;46899;47.542;19.082;2023-02-26T06:35:32;99561.41;;;2.13;99.47
61014;BME280;46899;47.542;19.082;2023-02-26T06:38:34;99554.53;;;2.17;99.09
61014;BME280;46899;47.542;19.082;2023-02-26T06:41:37;99552.72;;;2.23;99.04
61014;BME280;46899;47.542;19.082;2023-02-26T06:44:39;99550.81;;;2.37;98.52
61014;BME280;46899;47.542;19.082;2023-02-26T06:47:42;99556.41;;;2.62;96.76
61014;BME280;46899;47.542;19.082;2023-02-26T06:50:44;99585.41;;;2.68;96.09
61014;BME280;46899;47.542;19.082;2023-02-26T06:53:47;99594.25;;;2.49;95.88
61014;BME280;46899;47.542;19.082;2023-02-26T06:56:50;99602.00;;;2.46;95.91
61014;BME280;46899;47.542;19.082;2023-02-26T06:59:52;99589.03;;;2.55;95.85
61014;BME280;46899;47.542;19.082;2023-02-26T07:02:55;99585.41;;;2.68;95.36
61014;BME280;46899;47.542;19.082;2023-02-26T07:05:58;99596.47;;;2.72;94.17
61014;BME280;46899;47.542;19.082;2023-02-26T07:09:20;99595.47;;;2.81;94.05
61014;BME280;46899;47.542;19.082;2023-02-26T07:12:23;99584.09;;;2.95;92.81
61014;BME280;46899;47.542;19.082;2023-02-26T07:15:26;99590.88;;;2.99;91.56
61014;BME280;46899;47.542;19.082;2023-02-26T07:18:28;99594.12;;;3.09;91.29
61014;BME280;46899;47.542;19.082;2023-02-26T07:21:31;99593.25;;;3.13;91.49
61014;BME280;46899;47.542;19.082;2023-02-26T07:24:33;99579.25;;;3.29;89.92
61014;BME280;46899;47.542;19.082;2023-02-26T07:27:36;99564.66;;;3.29;90.02
61014;BME280;46899;47.542;19.082;2023-02-26T07:30:39;99573.09;;;3.36;90.11
61014;BME280;46899;47.542;19.082;2023-02-26T07:33:43;99573.50;;;3.59;89.93
61014;BME280;46899;47.542;19.082;2023-02-26T07:36:46;99581.44;;;3.91;87.41
61014;BME280;46899;47.542;19.082;2023-02-26T07:39:48;99576.16;;;3.97;86.39
61014;BME280;46899;47.542;19.082;2023-02-26T07:42:51;99570.78;;;4.09;85.78
61014;BME280;46899;47.542;19.082;2023-02-26T07:45:53;99591.25;;;4.89;81.54
61014;BME280;46899;47.542;19.082;2023-02-26T07:48:56;99602.19;;;4.97;80.68
61014;BME280;46899;47.542;19.082;2023-02-26T07:51:59;99589.56;;;5.22;79.50
61014;BME280;46899;47.542;19.082;2023-02-26T07:55:02;99609.78;;;5.03;80.39
61014;BME280;46899;47.542;19.082;2023-02-26T07:58:04;99595.06;;;5.08;79.85
61014;BME280;46899;47.542;19.082;2023-02-26T08:01:07;99599.19;;;5.15;79.69
61014;BME280;46899;47.542;19.082;2023-02-26T08:04:10;99604.47;;;5.09;79.36
61014;BME280;46899;47.542;19.082;2023-02-26T08:07:12;99602.13;;;5.00;80.01
61014;BME280;46899;47.542;19.082;2023-02-26T08:10:15;99607.66;;;5.20;79.38
61014;BME280;46899;47.542;19.082;2023-02-26T08:13:18;99598.91;;;4.92;80.57
61014;BME280;46899;47.542;19.082;2023-02-26T08:16:21;99600.62;;;4.92;80.63
61014;BME280;46899;47.542;19.082;2023-02-26T08:19:23;99600.41;;;5.01;79.89
61014;BME280;46899;47.542;19.082;2023-02-26T08:22:26;99605.16;;;5.17;79.37
61014;BME280;46899;47.542;19.082;2023-02-26T08:25:28;99591.00;;;4.98;80.02
61014;BME280;46899;47.542;19.082;2023-02-26T08:28:31;99608.12;;;5.01;79.93
61014;BME280;46899;47.542;19.082;2023-02-26T08:31:34;99620.66;;;5.16;79.28
61014;BME280;46899;47.542;19.082;2023-02-26T08:34:37;99630.66;;;5.28;78.00
61014;BME280;46899;47.542;19.082;2023-02-26T08:37:57;99617.63;;;5.32;78.18
61014;BME280;46899;47.542;19.082;2023-02-26T08:41:01;99613.53;;;5.58;77.24
61014;BME280;46899;47.542;19.082;2023-02-26T08:44:04;99620.37;;;5.59;76.57
61014;BME280;46899;47.542;19.082;2023-02-26T08:47:06;99623.62;;;5.34;77.39
61014;BME280;46899;47.542;19.082;2023-02-26T08:50:09;99630.88;;;5.20;78.00
61014;BME280;46899;47.542;19.082;2023-02-26T08:53:12;99631.41;;;4.98;78.89
61014;BME280;46899;47.542;19.082;2023-02-26T08:56:15;99642.28;;;5.10;78.66
61014;BME280;46899;47.542;19.082;2023-02-26T08:59:18;99652.44;;;5.16;79.21
61014;BME280;46899;47.542;19.082;2023-02-26T09:02:20;99650.28;;;5.33;77.71
61014;BME280;46899;47.542;19.082;2023-02-26T09:05:23;99657.41;;;5.24;78.25
61014;BME280;46899;47.542;19.082;2023-02-26T09:08:25;99659.91;;;5.27;78.11
61014;BME280;46899;47.542;19.082;2023-02-26T09:11:28;99675.03;;;5.40;77.01
61014;BME280;46899;47.542;19.082;2023-02-26T09:14:31;99668.00;;;5.47;76.43
61014;BME280;46899;47.542;19.082;2023-02-26T09:17:34;99655.38;;;5.69;75.84
61014;BME280;46899;47.542;19.082;2023-02-26T09:20:36;99662.72;;;5.84;73.68
61014;BME280;46899;47.542;19.082;2023-02-26T09:23:39;99665.25;;;5.87;73.73
61014;BME280;46899;47.542;19.082;2023-02-26T09:26:42;99664.91;;;5.99;73.11
61014;BME280;46899;47.542;19.082;2023-02-26T09:29:46;99671.53;;;6.09;70.56
61014;BME280;46899;47.542;19.082;2023-02-26T09:32:48;99678.75;;;6.27;66.69
61014;BME280;46899;47.542;19.082;2023-02-26T09:35:51;99677.25;;;6.49;66.30
61014;BME280;46899;47.542;19.082;2023-02-26T09:38:54;99685.94;;;6.47;65.61
61014;BME280;46899;47.542;19.082;2023-02-26T09:41:57;99682.28;;;6.54;64.86
61014;BME280;46899;47.542;19.082;2023-02-26T09:45:01;99685.16;;;6.43;64.96
61014;BME280;46899;47.542;19.082;2023-02-26T09:48:04;99684.66;;;6.61;65.70
61014;BME280;46899;47.542;19.082;2023-02-26T09:51:08;99691.38;;;6.95;63.50
61014;BME280;46899;47.542;19.082;2023-02-26T09:54:15;99685.28;;;6.97;61.46
61014;BME280;46899;47.542;19.082;2023-02-26T09:57:26;99686.91;;;7.00;60.21
61014;BME280;46899;47.542;19.082;2023-02-26T10:13:19;99705.81;;;7.02;58.63
61014;BME280;46899;47.542;19.082;2023-02-26T10:16:25;99716.47;;;6.91;58.95
61014;BME280;46899;47.542;19.082;2023-02-26T10:19:32;99739.44;;;6.72;59.97
61014;BME280;46899;47.542;19.082;2023-02-26T10:22:40;99742.47;;;6.86;60.06
61014;BME280;46899;47.542;19.082;2023-02-26T10:25:45;99750.44;;;7.08;60.22
61014;BME280;46899;47.542;19.082;2023-02-26T10:35:16;99772.53;;;7.46;59.25
61014;BME280;46899;47.542;19.082;2023-02-26T10:38:21;99764.66;;;7.49;58.93
61014;BME280;46899;47.542;19.082;2023-02-26T10:41:27;99765.50;;;7.49;59.11
61014;BME280;46899;47.542;19.082;2023-02-26T10:44:33;99777.12;;;7.90;57.80
61014;BME280;46899;47.542;19.082;2023-02-26T10:47:48;99775.19;;;8.21;56.63
61014;BME280;46899;47.542;19.082;2023-02-26T10:50:55;99783.22;;;8.14;56.92
61014;BME280;46899;47.542;19.082;2023-02-26T10:54:01;99773.09;;;8.33;56.81
61014;BME280;46899;47.542;19.082;2023-02-26T10:57:06;99787.84;;;8.31;56.31
61014;BME280;46899;47.542;19.082;2023-02-26T11:00:15;99783.06;;;8.43;56.47
61014;BME280;46899;47.542;19.082;2023-02-26T11:03:33;99782.00;;;8.49;56.45
61014;BME280;46899;47.542;19.082;2023-02-26T11:06:39;99787.56;;;8.86;54.71
61014;BME280;46899;47.542;19.082;2023-02-26T11:09:43;99790.53;;;9.22;53.36
61014;BME280;46899;47.542;19.082;2023-02-26T11:12:46;99790.44;;;9.23;53.50
61014;BME280;46899;47.542;19.082;2023-02-26T11:15:50;99792.94;;;9.26;53.48
61014;BME280;46899;47.542;19.082;2023-02-26T11:18:53;99790.03;;;8.89;54.17
61014;BME280;46899;47.542;19.082;2023-02-26T11:21:56;99784.28;;;9.04;54.61
61014;BME280;46899;47.542;19.082;2023-02-26T11:25:00;99785.44;;;8.97;55.51
61014;BME280;46899;47.542;19.082;2023-02-26T11:28:05;99798.41;;;8.97;54.84
61014;BME280;46899;47.542;19.082;2023-02-26T11:31:09;99795.06;;;8.46;55.93
61014;BME280;46899;47.542;19.082;2023-02-26T11:34:12;99801.69;;;8.05;56.90
61014;BME280;46899;47.542;19.082;2023-02-26T11:37:18;99799.25;;;8.25;57.08
61014;BME280;46899;47.542;19.082;2023-02-26T11:43:41;99811.09;;;8.34;56.48
61014;BME280;46899;47.542;19.082;2023-02-26T11:46:52;99820.63;;;8.32;56.62
61014;BME280;46899;47.542;19.082;2023-02-26T11:50:01;99806.16;;;8.26;56.93
61014;BME280;46899;47.542;19.082;2023-02-26T11:53:09;99805.38;;;8.72;55.84
61014;BME280;46899;47.542;19.082;2023-02-26T11:56:29;99811.66;;;8.66;56.15
61014;BME280;46899;47.542;19.082;2023-02-26T11:59:38;99809.09;;;8.65;56.53
61014;BME280;46899;47.542;19.082;2023-02-26T12:02:41;99804.81;;;8.87;56.34
61014;BME280;46899;47.542;19.082;2023-02-26T12:05:44;99813.97;;;8.97;56.22
61014;BME280;46899;47.542;19.082;2023-02-26T12:08:47;99816.84;;;8.89;55.43
61014;BME280;46899;47.542;19.082;2023-02-26T12:22:02;99826.69;;;8.57;55.75
61014;BME280;46899;47.542;19.082;2023-02-26T12:37:41;99827.59;;;8.79;55.80
61014;BME280;46899;47.542;19.082;2023-02-26T12:43:54;99839.22;;;8.69;55.82
61014;BME280;46899;47.542;19.082;2023-02-26T12:47:06;99846.28;;;8.13;56.73
61014;BME280;46899;47.542;19.082;2023-02-26T12:57:03;99850.16;;;8.27;56.42
61014;BME280;46899;47.542;19.082;2023-02-26T13:06:55;99859.22;;;8.41;54.92
61014;BME280;46899;47.542;19.082;2023-02-26T13:22:39;99883.62;;;7.80;57.36
61014;BME280;46899;47.542;19.082;2023-02-26T13:25:48;99887.31;;;7.73;57.42
61014;BME280;46899;47.542;19.082;2023-02-26T13:28:55;99894.25;;;7.72;59.63
61014;BME280;46899;47.542;19.082;2023-02-26T13:32:02;99896.34;;;7.32;61.87
61014;BME280;46899;47.542;19.082;2023-02-26T13:35:14;99898.28;;;6.93;63.41
61014;BME280;46899;47.542;19.082;2023-02-26T13:41:46;99901.81;;;6.58;63.44
61014;BME280;46899;47.542;19.082;2023-02-26T13:48:29;99907.56;;;6.69;61.54
61014;BME280;46899;47.542;19.082;2023-02-26T13:51:28;99906.97;;;6.92;60.83
61014;BME280;46899;47.542;19.082;2023-02-26T13:54:33;99904.13;;;7.01;60.14
61014;BME280;46899;47.542;19.082;2023-02-26T13:57:42;99911.94;;;6.98;59.53
61014;BME280;46899;47.542;19.082;2023-02-26T14:01:13;99914.44;;;6.70;61.13
61014;BME280;46899;47.542;19.082;2023-02-26T14:10:44;99928.03;;;6.45;63.40
61014;BME280;46899;47.542;19.082;2023-02-26T14:17:25;99933.53;;;6.31;64.77
61014;BME280;46899;47.542;19.082;2023-02-26T14:20:31;99933.22;;;6.09;66.22
61014;BME280;46899;47.542;19.082;2023-02-26T14:23:34;99941.72;;;6.13;66.61
61014;BME280;46899;47.542;19.082;2023-02-26T14:26:37;99943.50;;;6.11;66.89
61014;BME280;46899;47.542;19.082;2023-02-26T14:29:41;99948.59;;;6.12;67.67
61014;BME280;46899;47.542;19.082;2023-02-26T14:35:50;99948.66;;;6.11;67.79
61014;BME280;46899;47.542;19.082;2023-02-26T14:38:59;99950.31;;;6.13;67.44
61014;BME280;46899;47.542;19.082;2023-02-26T14:42:09;99957.91;;;6.21;67.47
61014;BME280;46899;47.542;19.082;2023-02-26T14:48:20;99959.94;;;6.07;65.75
61014;BME280;46899;47.542;19.082;2023-02-26T14:51:32;99964.41;;;6.00;65.73
61014;BME280;46899;47.542;19.082;2023-02-26T14:54:59;99974.00;;;5.94;65.35
61014;BME280;46899;47.542;19.082;2023-02-26T14:58:16;99975.94;;;5.83;66.25
61014;BME280;46899;47.542;19.082;2023-02-26T15:01:28;99978.53;;;5.84;64.09
61014;BME280;46899;47.542;19.082;2023-02-26T15:26:33;100021.03;;;5.67;64.17
61014;BME280;46899;47.542;19.082;2023-02-26T15:29:37;100028.88;;;5.62;64.56
61014;BME280;46899;47.542;19.082;2023-02-26T15:32:40;100024.69;;;5.57;65.33
61014;BME280;46899;47.542;19.082;2023-02-26T15:35:43;100034.22;;;5.51;65.76
61014;BME280;46899;47.542;19.082;2023-02-26T15:38:48;100033.41;;;5.49;66.52
61014;BME280;46899;47.542;19.082;2023-02-26T15:41:51;100045.41;;;5.52;66.57
61014;BME280;46899;47.542;19.082;2023-02-26T15:44:55;100042.97;;;5.46;67.17
61014;BME280;46899;47.542;19.082;2023-02-26T15:48:00;100047.25;;;5.45;66.82
61014;BME280;46899;47.542;19.082;2023-02-26T15:51:04;100051.53;;;5.48;66.63
61014;BME280;46899;47.542;19.082;2023-02-26T15:54:09;100045.56;;;5.44;66.55
61014;BME280;46899;47.542;19.082;2023-02-26T15:57:17;100052.66;;;5.33;65.92
61014;BME280;46899;47.542;19.082;2023-02-26T16:00:21;100055.28;;;5.30;65.79
61014;BME280;46899;47.542;19.082;2023-02-26T16:03:28;100068.13;;;5.33;65.49
61014;BME280;46899;47.542;19.082;2023-02-26T16:06:34;100075.06;;;5.31;65.51
61014;BME280;46899;47.542;19.082;2023-02-26T16:09:39;100074.31;;;5.23;65.52
61014;BME280;46899;47.542;19.082;2023-02-26T16:12:42;100074.41;;;5.20;65.47
61014;BME280;46899;47.542;19.082;2023-02-26T16:15:50;100080.59;;;5.10;66.31
61014;BME280;46899;47.542;19.082;2023-02-26T16:18:53;100085.63;;;5.16;65.87
61014;BME280;46899;47.542;19.082;2023-02-26T16:21:56;100092.56;;;5.13;66.16
61014;BME280;46899;47.542;19.082;2023-02-26T16:25:01;100090.91;;;5.10;65.82
61014;BME280;46899;47.542;19.082;2023-02-26T16:28:14;100101.25;;;5.07;66.05
61014;BME280;46899;47.542;19.082;2023-02-26T16:31:18;100101.25;;;5.07;66.05
61014;BME280;46899;47.542;19.082;2023-02-26T16:37:47;100104.00;;;4.98;66.66
61014;BME280;46899;47.542;19.082;2023-02-26T16:40:58;100109.19;;;4.97;67.22
61014;BME280;46899;47.542;19.082;2023-02-26T16:44:02;100116.03;;;4.99;67.00
61014;BME280;46899;47.542;19.082;2023-02-26T16:47:06;100122.00;;;5.00;66.94
61014;BME280;46899;47.542;19.082;2023-02-26T16:50:18;100127.19;;;4.98;66.94
61014;BME280;46899;47.542;19.082;2023-02-26T16:53:21;100132.34;;;4.98;67.14
61014;BME280;46899;47.542;19.082;2023-02-26T16:56:29;100131.53;;;4.95;67.74
61014;BME280;46899;47.542;19.082;2023-02-26T16:59:34;100137.66;;;4.89;68.50
61014;BME280;46899;47.542;19.082;2023-02-26T17:02:39;100141.16;;;4.85;68.52
61014;BME280;46899;47.542;19.082;2023-02-26T17:05:45;100148.09;;;4.80;69.52
61014;BME280;46899;47.542;19.082;2023-02-26T17:08:52;100134.41;;;4.78;69.80
61014;BME280;46899;47.542;19.082;2023-02-26T17:12:02;100144.72;;;4.78;69.96
61014;BME280;46899;47.542;19.082;2023-02-26T17:15:11;100146.53;;;4.70;70.81
61014;BME280;46899;47.542;19.082;2023-02-26T17:18:14;100159.28;;;4.79;70.50
61014;BME280;46899;47.542;19.082;2023-02-26T17:21:16;100156.69;;;4.79;70.57
61014;BME280;46899;47.542;19.082;2023-02-26T17:24:20;100160.34;;;4.66;71.44
61014;BME280;46899;47.542;19.082;2023-02-26T17:27:29;100159.50;;;4.62;72.10
61014;BME280;46899;47.542;19.082;2023-02-26T17:30:33;100171.59;;;4.59;72.97
61014;BME280;46899;47.542;19.082;2023-02-26T17:33:35;100169.06;;;4.56;73.58
61014;BME280;46899;47.542;19.082;2023-02-26T17:36:39;100169.00;;;4.60;73.62
61014;BME280;46899;47.542;19.082;2023-02-26T17:39:42;100164.88;;;4.49;74.44
61014;BME280;46899;47.542;19.082;2023-02-26T17:42:45;100162.31;;;4.46;74.85
61014;BME280;46899;47.542;19.082;2023-02-26T17:45:48;100164.12;;;4.39;75.12
61014;BME280;46899;47.542;19.082;2023-02-26T17:48:51;100168.47;;;4.37;75.36
61014;BME280;46899;47.542;19.082;2023-02-26T17:51:54;100172.63;;;4.46;74.88
61014;BME280;46899;47.542;19.082;2023-02-26T17:54:56;100170.13;;;4.43;75.32
61014;BME280;46899;47.542;19.082;2023-02-26T17:57:59;100172.75;;;4.37;75.63
61014;BME280;46899;47.542;19.082;2023-02-26T18:01:02;100176.28;;;4.30;76.37
61014;BME280;46899;47.542;19.082;2023-02-26T18:04:06;100175.47;;;4.25;77.02
61014;BME280;46899;47.542;19.082;2023-02-26T18:07:10;100178.06;;;4.22;77.54
61014;BME280;46899;47.542;19.082;2023-02-26T18:10:19;100169.56;;;4.18;78.39
61014;BME280;46899;47.542;19.082;2023-02-26T18:13:26;100177.38;;;4.07;79.17
61014;BME280;46899;47.542;19.082;2023-02-26T18:16:47;100175.69;;;4.06;79.55
61014;BME280;46899;47.542;19.082;2023-02-26T18:19:50;100176.63;;;3.99;80.16
61014;BME280;46899;47.542;19.082;2023-02-26T18:22:53;100181.91;;;3.90;80.53
61014;BME280;46899;47.542;19.082;2023-02-26T18:25:55;100181.84;;;3.93;80.03
61014;BME280;46899;47.542;19.082;2023-02-26T18:28:58;100175.87;;;3.91;79.67
61014;BME280;46899;47.542;19.082;2023-02-26T18:32:00;100173.38;;;3.82;79.90
61014;BME280;46899;47.542;19.082;2023-02-26T18:35:05;100178.53;;;3.84;79.38
61014;BME280;46899;47.542;19.082;2023-02-26T18:38:09;100177.59;;;3.91;79.29
61014;BME280;46899;47.542;19.082;2023-02-26T18:41:12;100183.66;;;3.85;79.40
61014;BME280;46899;47.542;19.082;2023-02-26T18:44:14;100191.41;;;3.82;79.55
61014;BME280;46899;47.542;19.082;2023-02-26T18:47:17;100196.56;;;3.81;79.52
61014;BME280;46899;47.542;19.082;2023-02-26T18:50:20;100202.59;;;3.81;79.59
61014;BME280;46899;47.542;19.082;2023-02-26T18:53:23;100206.78;;;3.88;79.22
61014;BME280;46899;47.542;19.082;2023-02-26T18:56:27;100206.69;;;3.97;78.84
61014;BME280;46899;47.542;19.082;2023-02-26T18:59:30;100215.22;;;4.02;78.06
61014;BME280;46899;47.542;19.082;2023-02-26T19:02:33;100207.44;;;4.05;78.34
61014;BME280;46899;47.542;19.082;2023-02-26T19:05:36;100221.22;;;4.01;77.71